Sugar Bush, Minnesota
Current Conditions -  °F | °C
As of 6:13 AM on Sunday 23 Nov 2014 (Local Time) from KBJI Reporting Station
Light Snow Light Snow  
Wind Chill: 33°   Ceiling: 300
Heat Index: 33°   Visibility: 0.75mi
Dew Point: 33°   Wind: 0mph
Humidity: 100%   Direction: NA
Pressure: 29.37"   Gusts: NA
Location:  47.5271°N, 94.7611°W
Report Text: KBJI 231213Z AUTO 00000KT 3/4SM -SN OVC003 00/00 A2937 RMK AO2 T00030003
Loading
Personal Weather Stations






























Interactive Weather Map New forecast layout! Learn more

10-Day Weather Forecast

Advertisements
Track Severe Weather on mobile